sensor_id;sensor_type;location;lat;lon;timestamp;temperature;humidity
3408;DHT22;1717;50.240;8.406;2022-07-15T00:01:42;19.60;52.90
3408;DHT22;1717;50.240;8.406;2022-07-15T00:04:09;19.60;53.00
3408;DHT22;1717;50.240;8.406;2022-07-15T00:06:36;19.60;53.10
3408;DHT22;1717;50.240;8.406;2022-07-15T00:09:03;19.50;53.10
3408;DHT22;1717;50.240;8.406;2022-07-15T00:11:30;19.50;53.30
3408;DHT22;1717;50.240;8.406;2022-07-15T00:13:57;19.40;53.40
3408;DHT22;1717;50.240;8.406;2022-07-15T00:16:24;19.40;53.40
3408;DHT22;1717;50.240;8.406;2022-07-15T00:18:52;19.40;53.40
3408;DHT22;1717;50.240;8.406;2022-07-15T00:21:19;19.30;53.40
3408;DHT22;1717;50.240;8.406;2022-07-15T00:23:46;19.30;53.50
3408;DHT22;1717;50.240;8.406;2022-07-15T00:26:13;19.30;53.60
3408;DHT22;1717;50.240;8.406;2022-07-15T00:28:39;19.30;53.60
3408;DHT22;1717;50.240;8.406;2022-07-15T00:31:06;19.20;53.70
3408;DHT22;1717;50.240;8.406;2022-07-15T00:33:33;19.20;53.70
3408;DHT22;1717;50.240;8.406;2022-07-15T00:36:01;19.20;53.80
3408;DHT22;1717;50.240;8.406;2022-07-15T00:38:28;19.20;53.80
3408;DHT22;1717;50.240;8.406;2022-07-15T00:40:55;19.20;53.90
3408;DHT22;1717;50.240;8.406;2022-07-15T00:43:22;19.20;53.80
3408;DHT22;1717;50.240;8.406;2022-07-15T00:45:49;19.10;53.80
3408;DHT22;1717;50.240;8.406;2022-07-15T00:48:16;19.10;54.00
3408;DHT22;1717;50.240;8.406;2022-07-15T00:50:42;19.10;54.00
3408;DHT22;1717;50.240;8.406;2022-07-15T00:53:14;19.00;54.00
3408;DHT22;1717;50.240;8.406;2022-07-15T00:55:45;19.00;54.10
3408;DHT22;1717;50.240;8.406;2022-07-15T00:58:15;19.00;54.20
3408;DHT22;1717;50.240;8.406;2022-07-15T01:00:43;19.00;54.30
3408;DHT22;1717;50.240;8.406;2022-07-15T01:03:10;18.90;54.20
3408;DHT22;1717;50.240;8.406;2022-07-15T01:05:37;18.90;54.30
3408;DHT22;1717;50.240;8.406;2022-07-15T01:08:05;18.90;54.50
3408;DHT22;1717;50.240;8.406;2022-07-15T01:10:34;18.90;54.60
3408;DHT22;1717;50.240;8.406;2022-07-15T01:13:01;18.90;54.60
3408;DHT22;1717;50.240;8.406;2022-07-15T01:15:30;18.80;54.50
3408;DHT22;1717;50.240;8.406;2022-07-15T01:17:59;18.80;54.70
3408;DHT22;1717;50.240;8.406;2022-07-15T01:20:26;18.80;54.70
3408;DHT22;1717;50.240;8.406;2022-07-15T01:22:55;18.70;54.80
3408;DHT22;1717;50.240;8.406;2022-07-15T01:25:21;18.70;55.00
3408;DHT22;1717;50.240;8.406;2022-07-15T01:27:48;18.70;55.10
3408;DHT22;1717;50.240;8.406;2022-07-15T01:30:15;18.70;55.10
3408;DHT22;1717;50.240;8.406;2022-07-15T01:32:42;18.60;55.30
3408;DHT22;1717;50.240;8.406;2022-07-15T01:35:09;18.60;55.40
3408;DHT22;1717;50.240;8.406;2022-07-15T01:37:36;18.60;55.50
3408;DHT22;1717;50.240;8.406;2022-07-15T01:40:05;18.50;55.60
3408;DHT22;1717;50.240;8.406;2022-07-15T01:42:33;18.50;55.70
3408;DHT22;1717;50.240;8.406;2022-07-15T01:44:59;18.50;55.80
3408;DHT22;1717;50.240;8.406;2022-07-15T01:47:26;18.50;55.90
3408;DHT22;1717;50.240;8.406;2022-07-15T01:49:53;18.50;55.90
3408;DHT22;1717;50.240;8.406;2022-07-15T01:52:20;18.40;56.00
3408;DHT22;1717;50.240;8.406;2022-07-15T01:54:47;18.40;55.90
3408;DHT22;1717;50.240;8.406;2022-07-15T01:57:15;18.30;56.10
3408;DHT22;1717;50.240;8.406;2022-07-15T01:59:42;18.30;56.20
3408;DHT22;1717;50.240;8.406;2022-07-15T02:02:09;18.20;56.40
3408;DHT22;1717;50.240;8.406;2022-07-15T02:04:35;18.20;56.60
3408;DHT22;1717;50.240;8.406;2022-07-15T02:07:03;18.20;56.60
3408;DHT22;1717;50.240;8.406;2022-07-15T02:09:30;18.10;56.80
3408;DHT22;1717;50.240;8.406;2022-07-15T02:11:57;18.10;56.90
3408;DHT22;1717;50.240;8.406;2022-07-15T02:14:25;18.20;57.10
3408;DHT22;1717;50.240;8.406;2022-07-15T02:16:52;18.10;57.20
3408;DHT22;1717;50.240;8.406;2022-07-15T02:19:19;18.10;57.50
3408;DHT22;1717;50.240;8.406;2022-07-15T02:21:46;18.10;57.60
3408;DHT22;1717;50.240;8.406;2022-07-15T02:24:13;18.10;57.70
3408;DHT22;1717;50.240;8.406;2022-07-15T02:26:40;18.10;57.60
3408;DHT22;1717;50.240;8.406;2022-07-15T02:29:07;18.10;57.60
3408;DHT22;1717;50.240;8.406;2022-07-15T02:31:35;18.10;57.50
3408;DHT22;1717;50.240;8.406;2022-07-15T02:34:02;18.10;57.70
3408;DHT22;1717;50.240;8.406;2022-07-15T02:36:30;18.00;57.70
3408;DHT22;1717;50.240;8.406;2022-07-15T02:38:57;18.00;57.90
3408;DHT22;1717;50.240;8.406;2022-07-15T02:41:23;18.00;57.90
3408;DHT22;1717;50.240;8.406;2022-07-15T02:43:51;18.00;58.10
3408;DHT22;1717;50.240;8.406;2022-07-15T02:46:18;18.00;58.00
3408;DHT22;1717;50.240;8.406;2022-07-15T02:48:46;18.00;58.00
3408;DHT22;1717;50.240;8.406;2022-07-15T02:51:13;18.00;58.10
3408;DHT22;1717;50.240;8.406;2022-07-15T02:53:40;18.10;58.30
3408;DHT22;1717;50.240;8.406;2022-07-15T02:56:07;18.10;58.30
3408;DHT22;1717;50.240;8.406;2022-07-15T02:58:34;18.10;58.30
3408;DHT22;1717;50.240;8.406;2022-07-15T03:01:02;18.10;58.30
3408;DHT22;1717;50.240;8.406;2022-07-15T03:03:28;18.10;58.30
3408;DHT22;1717;50.240;8.406;2022-07-15T03:05:57;18.20;58.40
3408;DHT22;1717;50.240;8.406;2022-07-15T03:08:25;18.20;58.40
3408;DHT22;1717;50.240;8.406;2022-07-15T03:10:51;18.20;58.40
3408;DHT22;1717;50.240;8.406;2022-07-15T03:13:19;18.20;58.40
3408;DHT22;1717;50.240;8.406;2022-07-15T03:15:46;18.30;58.60
3408;DHT22;1717;50.240;8.406;2022-07-15T03:18:12;18.20;58.70
3408;DHT22;1717;50.240;8.406;2022-07-15T03:20:39;18.30;58.70
3408;DHT22;1717;50.240;8.406;2022-07-15T03:23:07;18.30;58.70
3408;DHT22;1717;50.240;8.406;2022-07-15T03:25:34;18.30;58.90
3408;DHT22;1717;50.240;8.406;2022-07-15T03:28:01;18.30;58.90
3408;DHT22;1717;50.240;8.406;2022-07-15T03:30:28;18.30;59.00
3408;DHT22;1717;50.240;8.406;2022-07-15T03:32:55;18.30;59.00
3408;DHT22;1717;50.240;8.406;2022-07-15T03:35:22;18.30;58.90
3408;DHT22;1717;50.240;8.406;2022-07-15T03:37:49;18.30;58.90
3408;DHT22;1717;50.240;8.406;2022-07-15T03:40:17;18.40;58.90
3408;DHT22;1717;50.240;8.406;2022-07-15T03:42:44;18.40;58.90
3408;DHT22;1717;50.240;8.406;2022-07-15T03:45:11;18.40;59.10
3408;DHT22;1717;50.240;8.406;2022-07-15T03:47:38;18.50;59.00
3408;DHT22;1717;50.240;8.406;2022-07-15T03:50:05;18.50;58.70
3408;DHT22;1717;50.240;8.406;2022-07-15T03:52:32;18.50;58.70
3408;DHT22;1717;50.240;8.406;2022-07-15T03:54:59;18.50;59.00
3408;DHT22;1717;50.240;8.406;2022-07-15T03:57:27;18.50;59.30
3408;DHT22;1717;50.240;8.406;2022-07-15T03:59:54;18.40;59.30
3408;DHT22;1717;50.240;8.406;2022-07-15T04:02:21;18.50;59.40
3408;DHT22;1717;50.240;8.406;2022-07-15T04:04:49;18.50;59.30
3408;DHT22;1717;50.240;8.406;2022-07-15T04:07:15;18.40;59.20
3408;DHT22;1717;50.240;8.406;2022-07-15T04:09:42;18.40;59.40
3408;DHT22;1717;50.240;8.406;2022-07-15T04:12:09;18.40;59.40
3408;DHT22;1717;50.240;8.406;2022-07-15T04:14:38;18.40;59.60
3408;DHT22;1717;50.240;8.406;2022-07-15T04:17:05;18.50;59.70
3408;DHT22;1717;50.240;8.406;2022-07-15T04:19:32;18.30;59.80
3408;DHT22;1717;50.240;8.406;2022-07-15T04:21:59;18.40;59.90
3408;DHT22;1717;50.240;8.406;2022-07-15T04:24:26;18.30;60.20
3408;DHT22;1717;50.240;8.406;2022-07-15T04:26:52;18.30;60.60
3408;DHT22;1717;50.240;8.406;2022-07-15T04:29:19;18.30;60.90
3408;DHT22;1717;50.240;8.406;2022-07-15T04:31:48;18.30;61.00
3408;DHT22;1717;50.240;8.406;2022-07-15T04:34:14;18.30;60.90
3408;DHT22;1717;50.240;8.406;2022-07-15T04:36:41;18.30;61.10
3408;DHT22;1717;50.240;8.406;2022-07-15T04:39:08;18.30;61.30
3408;DHT22;1717;50.240;8.406;2022-07-15T04:41:35;18.30;61.10
3408;DHT22;1717;50.240;8.406;2022-07-15T04:44:02;18.30;61.40
3408;DHT22;1717;50.240;8.406;2022-07-15T04:46:29;18.30;64.30
3408;DHT22;1717;50.240;8.406;2022-07-15T04:48:57;18.20;65.40
3408;DHT22;1717;50.240;8.406;2022-07-15T04:51:42;18.00;64.50
3408;DHT22;1717;50.240;8.406;2022-07-15T04:54:08;17.90;65.90
3408;DHT22;1717;50.240;8.406;2022-07-15T04:56:36;17.80;66.40
3408;DHT22;1717;50.240;8.406;2022-07-15T04:59:03;17.60;67.00
3408;DHT22;1717;50.240;8.406;2022-07-15T05:01:29;17.50;67.50
3408;DHT22;1717;50.240;8.406;2022-07-15T05:03:58;17.30;67.40
3408;DHT22;1717;50.240;8.406;2022-07-15T05:06:25;17.20;68.00
3408;DHT22;1717;50.240;8.406;2022-07-15T05:08:51;17.10;67.80
3408;DHT22;1717;50.240;8.406;2022-07-15T05:11:18;17.00;68.20
3408;DHT22;1717;50.240;8.406;2022-07-15T05:13:45;17.00;69.10
3408;DHT22;1717;50.240;8.406;2022-07-15T05:16:12;17.00;69.90
3408;DHT22;1717;50.240;8.406;2022-07-15T05:18:39;16.90;69.30
3408;DHT22;1717;50.240;8.406;2022-07-15T05:21:07;16.90;69.70
3408;DHT22;1717;50.240;8.406;2022-07-15T05:23:34;16.80;70.40
3408;DHT22;1717;50.240;8.406;2022-07-15T05:26:01;16.80;71.00
3408;DHT22;1717;50.240;8.406;2022-07-15T05:28:28;16.80;71.70
3408;DHT22;1717;50.240;8.406;2022-07-15T05:30:55;16.70;71.70
3408;DHT22;1717;50.240;8.406;2022-07-15T05:33:22;16.80;72.00
3408;DHT22;1717;50.240;8.406;2022-07-15T05:35:49;16.80;72.40
3408;DHT22;1717;50.240;8.406;2022-07-15T05:38:17;16.70;72.50
3408;DHT22;1717;50.240;8.406;2022-07-15T05:40:44;16.70;72.60
3408;DHT22;1717;50.240;8.406;2022-07-15T05:43:11;16.80;73.00
3408;DHT22;1717;50.240;8.406;2022-07-15T05:45:39;16.80;73.00
3408;DHT22;1717;50.240;8.406;2022-07-15T05:48:06;16.80;73.30
3408;DHT22;1717;50.240;8.406;2022-07-15T05:50:33;16.70;73.80
3408;DHT22;1717;50.240;8.406;2022-07-15T05:53:00;16.70;74.40
3408;DHT22;1717;50.240;8.406;2022-07-15T05:55:29;16.70;74.90
3408;DHT22;1717;50.240;8.406;2022-07-15T05:57:56;16.70;75.00
3408;DHT22;1717;50.240;8.406;2022-07-15T06:00:23;16.60;75.00
3408;DHT22;1717;50.240;8.406;2022-07-15T06:02:50;16.70;75.20
3408;DHT22;1717;50.240;8.406;2022-07-15T06:05:17;16.70;75.90
3408;DHT22;1717;50.240;8.406;2022-07-15T06:07:44;16.70;76.10
3408;DHT22;1717;50.240;8.406;2022-07-15T06:10:10;16.70;76.50
3408;DHT22;1717;50.240;8.406;2022-07-15T06:12:38;16.80;76.50
3408;DHT22;1717;50.240;8.406;2022-07-15T06:15:07;16.90;76.80
3408;DHT22;1717;50.240;8.406;2022-07-15T06:17:34;17.00;76.90
3408;DHT22;1717;50.240;8.406;2022-07-15T06:20:02;17.10;77.20
3408;DHT22;1717;50.240;8.406;2022-07-15T06:22:29;17.10;77.60
3408;DHT22;1717;50.240;8.406;2022-07-15T06:24:56;17.30;77.20
3408;DHT22;1717;50.240;8.406;2022-07-15T06:27:23;17.40;77.00
3408;DHT22;1717;50.240;8.406;2022-07-15T06:29:52;17.50;76.40
3408;DHT22;1717;50.240;8.406;2022-07-15T06:32:19;17.60;76.00
3408;DHT22;1717;50.240;8.406;2022-07-15T06:34:45;17.60;75.40
3408;DHT22;1717;50.240;8.406;2022-07-15T06:37:12;17.90;77.10
3408;DHT22;1717;50.240;8.406;2022-07-15T06:39:39;17.90;76.10
3408;DHT22;1717;50.240;8.406;2022-07-15T06:42:06;18.00;76.30
3408;DHT22;1717;50.240;8.406;2022-07-15T06:44:33;18.10;74.80
3408;DHT22;1717;50.240;8.406;2022-07-15T06:47:02;18.20;75.10
3408;DHT22;1717;50.240;8.406;2022-07-15T06:49:32;18.20;74.00
3408;DHT22;1717;50.240;8.406;2022-07-15T06:51:59;18.20;74.00
3408;DHT22;1717;50.240;8.406;2022-07-15T06:54:27;18.30;74.00
3408;DHT22;1717;50.240;8.406;2022-07-15T06:56:54;18.40;73.40
3408;DHT22;1717;50.240;8.406;2022-07-15T06:59:21;18.50;72.60
3408;DHT22;1717;50.240;8.406;2022-07-15T07:01:48;18.40;72.80
3408;DHT22;1717;50.240;8.406;2022-07-15T07:04:16;18.40;72.70
3408;DHT22;1717;50.240;8.406;2022-07-15T07:06:43;18.40;72.80
3408;DHT22;1717;50.240;8.406;2022-07-15T07:09:10;18.50;72.80
3408;DHT22;1717;50.240;8.406;2022-07-15T07:11:38;18.60;73.00
3408;DHT22;1717;50.240;8.406;2022-07-15T07:14:06;18.60;72.30
3408;DHT22;1717;50.240;8.406;2022-07-15T07:16:33;18.60;72.20
3408;DHT22;1717;50.240;8.406;2022-07-15T07:19:00;18.60;71.90
3408;DHT22;1717;50.240;8.406;2022-07-15T07:21:29;18.60;71.80
3408;DHT22;1717;50.240;8.406;2022-07-15T07:23:57;18.70;73.10
3408;DHT22;1717;50.240;8.406;2022-07-15T07:26:24;18.70;72.80
3408;DHT22;1717;50.240;8.406;2022-07-15T07:28:51;18.70;71.40
3408;DHT22;1717;50.240;8.406;2022-07-15T07:31:18;18.70;71.50
3408;DHT22;1717;50.240;8.406;2022-07-15T07:33:48;18.80;70.90
3408;DHT22;1717;50.240;8.406;2022-07-15T07:36:15;18.70;70.10
3408;DHT22;1717;50.240;8.406;2022-07-15T07:38:43;18.70;70.70
3408;DHT22;1717;50.240;8.406;2022-07-15T07:41:10;18.70;71.00
3408;DHT22;1717;50.240;8.406;2022-07-15T07:43:37;18.70;71.00
3408;DHT22;1717;50.240;8.406;2022-07-15T07:46:05;18.70;70.60
3408;DHT22;1717;50.240;8.406;2022-07-15T07:48:32;18.70;70.50
3408;DHT22;1717;50.240;8.406;2022-07-15T07:51:00;18.80;69.10
3408;DHT22;1717;50.240;8.406;2022-07-15T07:53:27;18.80;70.20
3408;DHT22;1717;50.240;8.406;2022-07-15T07:55:56;18.80;69.50
3408;DHT22;1717;50.240;8.406;2022-07-15T07:58:23;18.80;69.30
3408;DHT22;1717;50.240;8.406;2022-07-15T08:00:50;18.80;68.10
3408;DHT22;1717;50.240;8.406;2022-07-15T08:03:18;18.90;68.70
3408;DHT22;1717;50.240;8.406;2022-07-15T08:05:45;18.90;69.20
3408;DHT22;1717;50.240;8.406;2022-07-15T08:08:13;19.00;69.80
3408;DHT22;1717;50.240;8.406;2022-07-15T08:10:43;19.10;68.20
3408;DHT22;1717;50.240;8.406;2022-07-15T08:13:12;19.30;69.80
3408;DHT22;1717;50.240;8.406;2022-07-15T08:15:40;19.50;68.90
3408;DHT22;1717;50.240;8.406;2022-07-15T08:18:07;19.60;68.80
3408;DHT22;1717;50.240;8.406;2022-07-15T08:20:34;19.60;68.40
3408;DHT22;1717;50.240;8.406;2022-07-15T08:23:02;19.70;68.60
3408;DHT22;1717;50.240;8.406;2022-07-15T08:25:31;19.70;68.30
3408;DHT22;1717;50.240;8.406;2022-07-15T08:27:58;19.60;68.70
3408;DHT22;1717;50.240;8.406;2022-07-15T08:30:28;19.40;65.40
3408;DHT22;1717;50.240;8.406;2022-07-15T08:32:55;19.40;65.20
3408;DHT22;1717;50.240;8.406;2022-07-15T08:35:23;19.30;63.20
3408;DHT22;1717;50.240;8.406;2022-07-15T08:37:50;19.20;63.10
3408;DHT22;1717;50.240;8.406;2022-07-15T08:40:17;19.30;63.40
3408;DHT22;1717;50.240;8.406;2022-07-15T08:42:44;19.40;63.20
3408;DHT22;1717;50.240;8.406;2022-07-15T08:45:13;19.40;63.00
3408;DHT22;1717;50.240;8.406;2022-07-15T08:47:43;19.40;63.80
3408;DHT22;1717;50.240;8.406;2022-07-15T08:50:15;19.30;63.50
3408;DHT22;1717;50.240;8.406;2022-07-15T08:52:45;19.40;62.10
3408;DHT22;1717;50.240;8.406;2022-07-15T08:55:13;19.30;62.80
3408;DHT22;1717;50.240;8.406;2022-07-15T08:57:45;19.30;62.50
3408;DHT22;1717;50.240;8.406;2022-07-15T09:00:13;19.30;62.70
3408;DHT22;1717;50.240;8.406;2022-07-15T09:02:41;19.40;61.90
3408;DHT22;1717;50.240;8.406;2022-07-15T09:05:30;19.50;63.10
3408;DHT22;1717;50.240;8.406;2022-07-15T09:08:03;19.50;60.60
3408;DHT22;1717;50.240;8.406;2022-07-15T09:10:58;19.50;59.50
3408;DHT22;1717;50.240;8.406;2022-07-15T09:13:31;19.60;59.20
3408;DHT22;1717;50.240;8.406;2022-07-15T09:16:00;19.70;58.70
3408;DHT22;1717;50.240;8.406;2022-07-15T09:18:31;19.80;57.90
3408;DHT22;1717;50.240;8.406;2022-07-15T09:20:59;19.90;57.00
3408;DHT22;1717;50.240;8.406;2022-07-15T09:23:28;20.00;56.60
3408;DHT22;1717;50.240;8.406;2022-07-15T09:25:57;20.10;57.10
3408;DHT22;1717;50.240;8.406;2022-07-15T09:28:36;20.20;57.80
3408;DHT22;1717;50.240;8.406;2022-07-15T09:31:04;20.20;58.50
3408;DHT22;1717;50.240;8.406;2022-07-15T09:33:59;20.30;57.90
3408;DHT22;1717;50.240;8.406;2022-07-15T09:36:27;20.20;57.60
3408;DHT22;1717;50.240;8.406;2022-07-15T09:38:56;20.30;57.40
3408;DHT22;1717;50.240;8.406;2022-07-15T09:41:26;20.40;56.50
3408;DHT22;1717;50.240;8.406;2022-07-15T09:43:56;20.50;55.30
3408;DHT22;1717;50.240;8.406;2022-07-15T09:46:25;20.60;56.60
3408;DHT22;1717;50.240;8.406;2022-07-15T09:48:54;20.70;59.50
3408;DHT22;1717;50.240;8.406;2022-07-15T09:51:22;20.60;58.00
3408;DHT22;1717;50.240;8.406;2022-07-15T09:53:51;20.70;57.90
3408;DHT22;1717;50.240;8.406;2022-07-15T09:56:20;20.70;56.70
3408;DHT22;1717;50.240;8.406;2022-07-15T09:58:52;20.60;56.50
3408;DHT22;1717;50.240;8.406;2022-07-15T10:01:19;20.70;57.30
3408;DHT22;1717;50.240;8.406;2022-07-15T10:03:46;20.80;58.10
3408;DHT22;1717;50.240;8.406;2022-07-15T10:06:17;20.90;56.80
3408;DHT22;1717;50.240;8.406;2022-07-15T10:08:46;20.80;55.70
3408;DHT22;1717;50.240;8.406;2022-07-15T10:11:14;20.80;55.70
3408;DHT22;1717;50.240;8.406;2022-07-15T10:13:54;20.70;54.90
3408;DHT22;1717;50.240;8.406;2022-07-15T10:16:39;20.70;55.10
3408;DHT22;1717;50.240;8.406;2022-07-15T10:19:17;20.70;55.60
3408;DHT22;1717;50.240;8.406;2022-07-15T10:21:51;20.70;55.10
3408;DHT22;1717;50.240;8.406;2022-07-15T10:24:35;20.70;54.50
3408;DHT22;1717;50.240;8.406;2022-07-15T10:27:16;20.70;55.60
3408;DHT22;1717;50.240;8.406;2022-07-15T10:29:48;20.70;56.40
3408;DHT22;1717;50.240;8.406;2022-07-15T10:32:15;20.80;56.70
3408;DHT22;1717;50.240;8.406;2022-07-15T10:34:42;20.90;57.60
3408;DHT22;1717;50.240;8.406;2022-07-15T10:37:12;20.80;58.10
3408;DHT22;1717;50.240;8.406;2022-07-15T10:39:56;20.80;58.40
3408;DHT22;1717;50.240;8.406;2022-07-15T10:42:57;20.80;57.00
3408;DHT22;1717;50.240;8.406;2022-07-15T10:45:24;20.90;56.50
3408;DHT22;1717;50.240;8.406;2022-07-15T10:50:50;21.00;55.00
3408;DHT22;1717;50.240;8.406;2022-07-15T10:53:24;21.10;55.10
3408;DHT22;1717;50.240;8.406;2022-07-15T10:55:53;21.00;53.60
3408;DHT22;1717;50.240;8.406;2022-07-15T10:58:21;21.00;54.20
3408;DHT22;1717;50.240;8.406;2022-07-15T11:00:48;21.00;54.10
3408;DHT22;1717;50.240;8.406;2022-07-15T11:03:17;21.00;54.30
3408;DHT22;1717;50.240;8.406;2022-07-15T11:06:04;21.00;52.60
3408;DHT22;1717;50.240;8.406;2022-07-15T11:08:53;21.10;53.90
3408;DHT22;1717;50.240;8.406;2022-07-15T11:11:48;21.10;51.90
3408;DHT22;1717;50.240;8.406;2022-07-15T11:14:43;21.20;50.80
3408;DHT22;1717;50.240;8.406;2022-07-15T11:17:11;21.30;52.60
3408;DHT22;1717;50.240;8.406;2022-07-15T11:19:39;21.40;53.10
3408;DHT22;1717;50.240;8.406;2022-07-15T11:22:08;21.40;51.80
3408;DHT22;1717;50.240;8.406;2022-07-15T11:24:36;21.50;52.70
3408;DHT22;1717;50.240;8.406;2022-07-15T11:27:03;21.40;52.60
3408;DHT22;1717;50.240;8.406;2022-07-15T11:29:52;21.40;52.50
3408;DHT22;1717;50.240;8.406;2022-07-15T11:32:22;21.20;51.30
3408;DHT22;1717;50.240;8.406;2022-07-15T11:34:51;21.10;52.80
3408;DHT22;1717;50.240;8.406;2022-07-15T11:37:18;21.20;53.00
3408;DHT22;1717;50.240;8.406;2022-07-15T11:39:47;21.20;52.20
3408;DHT22;1717;50.240;8.406;2022-07-15T11:42:21;21.30;52.50
3408;DHT22;1717;50.240;8.406;2022-07-15T11:45:08;21.40;51.60
3408;DHT22;1717;50.240;8.406;2022-07-15T11:47:50;21.50;51.30
3408;DHT22;1717;50.240;8.406;2022-07-15T11:50:17;21.60;50.70
3408;DHT22;1717;50.240;8.406;2022-07-15T11:52:45;21.80;49.60
3408;DHT22;1717;50.240;8.406;2022-07-15T11:55:13;21.80;51.10
3408;DHT22;1717;50.240;8.406;2022-07-15T11:57:45;21.80;50.40
3408;DHT22;1717;50.240;8.406;2022-07-15T12:00:14;21.80;50.40
3408;DHT22;1717;50.240;8.406;2022-07-15T12:02:41;21.80;50.60
3408;DHT22;1717;50.240;8.406;2022-07-15T12:05:09;21.80;50.10
3408;DHT22;1717;50.240;8.406;2022-07-15T12:07:43;21.80;50.20
3408;DHT22;1717;50.240;8.406;2022-07-15T12:10:12;21.90;50.30
3408;DHT22;1717;50.240;8.406;2022-07-15T12:12:42;22.00;49.70
3408;DHT22;1717;50.240;8.406;2022-07-15T12:15:21;22.10;49.40
3408;DHT22;1717;50.240;8.406;2022-07-15T12:17:49;22.00;49.30
3408;DHT22;1717;50.240;8.406;2022-07-15T12:20:16;22.10;49.60
3408;DHT22;1717;50.240;8.406;2022-07-15T12:23:01;22.10;49.10
3408;DHT22;1717;50.240;8.406;2022-07-15T12:25:28;22.20;48.50
3408;DHT22;1717;50.240;8.406;2022-07-15T12:27:55;22.30;48.30
3408;DHT22;1717;50.240;8.406;2022-07-15T12:30:30;22.40;47.80
3408;DHT22;1717;50.240;8.406;2022-07-15T12:33:13;22.50;48.00
3408;DHT22;1717;50.240;8.406;2022-07-15T12:35:40;22.60;46.60
3408;DHT22;1717;50.240;8.406;2022-07-15T12:38:07;22.50;47.30
3408;DHT22;1717;50.240;8.406;2022-07-15T12:40:35;22.60;46.90
3408;DHT22;1717;50.240;8.406;2022-07-15T12:43:02;22.50;45.20
3408;DHT22;1717;50.240;8.406;2022-07-15T12:45:36;22.50;45.50
3408;DHT22;1717;50.240;8.406;2022-07-15T12:48:05;22.50;45.20
3408;DHT22;1717;50.240;8.406;2022-07-15T12:50:35;22.50;45.80
3408;DHT22;1717;50.240;8.406;2022-07-15T12:53:03;22.50;45.70
3408;DHT22;1717;50.240;8.406;2022-07-15T12:55:32;22.60;45.90
3408;DHT22;1717;50.240;8.406;2022-07-15T12:58:04;22.70;46.50
3408;DHT22;1717;50.240;8.406;2022-07-15T13:00:34;22.80;46.80
3408;DHT22;1717;50.240;8.406;2022-07-15T13:03:03;22.90;46.80
3408;DHT22;1717;50.240;8.406;2022-07-15T13:05:32;23.00;47.40
3408;DHT22;1717;50.240;8.406;2022-07-15T13:08:00;23.10;47.30
3408;DHT22;1717;50.240;8.406;2022-07-15T13:10:28;23.10;46.00
3408;DHT22;1717;50.240;8.406;2022-07-15T13:12:56;23.10;46.20
3408;DHT22;1717;50.240;8.406;2022-07-15T13:15:23;23.10;45.90
3408;DHT22;1717;50.240;8.406;2022-07-15T13:17:52;23.20;45.80
3408;DHT22;1717;50.240;8.406;2022-07-15T13:20:19;23.30;45.90
3408;DHT22;1717;50.240;8.406;2022-07-15T13:22:47;23.30;45.30
3408;DHT22;1717;50.240;8.406;2022-07-15T13:25:13;23.30;44.00
3408;DHT22;1717;50.240;8.406;2022-07-15T13:27:41;23.20;43.50
3408;DHT22;1717;50.240;8.406;2022-07-15T13:30:09;23.20;45.40
3408;DHT22;1717;50.240;8.406;2022-07-15T13:32:36;23.30;45.60
3408;DHT22;1717;50.240;8.406;2022-07-15T13:35:06;23.30;44.70
3408;DHT22;1717;50.240;8.406;2022-07-15T13:37:33;23.40;45.70
3408;DHT22;1717;50.240;8.406;2022-07-15T13:40:01;23.50;45.30
3408;DHT22;1717;50.240;8.406;2022-07-15T13:42:28;23.60;46.10
3408;DHT22;1717;50.240;8.406;2022-07-15T13:44:55;23.70;45.20
3408;DHT22;1717;50.240;8.406;2022-07-15T13:47:23;23.70;45.60
3408;DHT22;1717;50.240;8.406;2022-07-15T13:49:50;23.80;45.40
3408;DHT22;1717;50.240;8.406;2022-07-15T13:52:42;23.70;44.90
3408;DHT22;1717;50.240;8.406;2022-07-15T13:55:09;23.80;45.20
3408;DHT22;1717;50.240;8.406;2022-07-15T13:57:36;23.80;45.10
3408;DHT22;1717;50.240;8.406;2022-07-15T14:00:05;23.80;45.00
3408;DHT22;1717;50.240;8.406;2022-07-15T14:02:33;23.90;44.50
3408;DHT22;1717;50.240;8.406;2022-07-15T14:05:00;23.90;43.20
3408;DHT22;1717;50.240;8.406;2022-07-15T14:07:27;23.90;44.60
3408;DHT22;1717;50.240;8.406;2022-07-15T14:09:55;24.00;44.30
3408;DHT22;1717;50.240;8.406;2022-07-15T14:12:22;24.10;43.50
3408;DHT22;1717;50.240;8.406;2022-07-15T14:14:48;24.10;44.60
3408;DHT22;1717;50.240;8.406;2022-07-15T14:17:16;24.20;44.60
3408;DHT22;1717;50.240;8.406;2022-07-15T14:19:43;24.20;43.10
3408;DHT22;1717;50.240;8.406;2022-07-15T14:22:10;24.20;43.00
3408;DHT22;1717;50.240;8.406;2022-07-15T14:24:37;24.10;43.80
3408;DHT22;1717;50.240;8.406;2022-07-15T14:27:05;24.10;42.70
3408;DHT22;1717;50.240;8.406;2022-07-15T14:29:32;24.10;43.10
3408;DHT22;1717;50.240;8.406;2022-07-15T14:31:59;24.30;44.00
3408;DHT22;1717;50.240;8.406;2022-07-15T14:34:27;24.30;43.80
3408;DHT22;1717;50.240;8.406;2022-07-15T14:36:54;24.30;42.50
3408;DHT22;1717;50.240;8.406;2022-07-15T14:39:21;24.30;43.10
3408;DHT22;1717;50.240;8.406;2022-07-15T14:41:49;24.20;43.10
3408;DHT22;1717;50.240;8.406;2022-07-15T14:44:18;24.20;42.50
3408;DHT22;1717;50.240;8.406;2022-07-15T14:46:45;24.20;43.40
3408;DHT22;1717;50.240;8.406;2022-07-15T14:49:12;24.20;43.10
3408;DHT22;1717;50.240;8.406;2022-07-15T14:51:39;24.20;42.10
3408;DHT22;1717;50.240;8.406;2022-07-15T14:54:05;24.20;41.90
3408;DHT22;1717;50.240;8.406;2022-07-15T14:56:32;24.20;41.80
3408;DHT22;1717;50.240;8.406;2022-07-15T14:58:59;24.20;41.80
3408;DHT22;1717;50.240;8.406;2022-07-15T15:01:28;24.10;40.70
3408;DHT22;1717;50.240;8.406;2022-07-15T15:03:54;24.10;41.90
3408;DHT22;1717;50.240;8.406;2022-07-15T15:06:21;24.00;42.30
3408;DHT22;1717;50.240;8.406;2022-07-15T15:08:48;24.00;43.20
3408;DHT22;1717;50.240;8.406;2022-07-15T15:11:15;24.00;42.50
3408;DHT22;1717;50.240;8.406;2022-07-15T15:13:43;24.00;42.70
3408;DHT22;1717;50.240;8.406;2022-07-15T15:16:10;24.00;42.70
3408;DHT22;1717;50.240;8.406;2022-07-15T15:18:38;24.00;42.60
3408;DHT22;1717;50.240;8.406;2022-07-15T15:21:05;24.00;41.60
3408;DHT22;1717;50.240;8.406;2022-07-15T15:23:32;23.90;41.50
3408;DHT22;1717;50.240;8.406;2022-07-15T15:26:02;23.90;41.60
3408;DHT22;1717;50.240;8.406;2022-07-15T15:28:48;23.80;42.10
3408;DHT22;1717;50.240;8.406;2022-07-15T15:31:16;23.80;42.70
3408;DHT22;1717;50.240;8.406;2022-07-15T15:33:45;23.80;42.70
3408;DHT22;1717;50.240;8.406;2022-07-15T15:36:13;23.90;43.50
3408;DHT22;1717;50.240;8.406;2022-07-15T15:38:40;23.90;42.40
3408;DHT22;1717;50.240;8.406;2022-07-15T15:41:07;23.90;42.60
3408;DHT22;1717;50.240;8.406;2022-07-15T15:43:34;23.80;42.40
3408;DHT22;1717;50.240;8.406;2022-07-15T15:46:02;23.70;43.20
3408;DHT22;1717;50.240;8.406;2022-07-15T15:48:29;23.70;43.10
3408;DHT22;1717;50.240;8.406;2022-07-15T15:50:57;23.80;43.60
3408;DHT22;1717;50.240;8.406;2022-07-15T15:53:25;23.90;44.20
3408;DHT22;1717;50.240;8.406;2022-07-15T15:55:52;23.90;43.20
3408;DHT22;1717;50.240;8.406;2022-07-15T15:58:19;23.80;42.30
3408;DHT22;1717;50.240;8.406;2022-07-15T16:00:46;23.70;42.00
3408;DHT22;1717;50.240;8.406;2022-07-15T16:03:13;23.70;42.60
3408;DHT22;1717;50.240;8.406;2022-07-15T16:05:40;23.70;41.90
3408;DHT22;1717;50.240;8.406;2022-07-15T16:08:09;23.70;42.40
3408;DHT22;1717;50.240;8.406;2022-07-15T16:10:36;23.70;42.20
3408;DHT22;1717;50.240;8.406;2022-07-15T16:13:03;23.70;42.10
3408;DHT22;1717;50.240;8.406;2022-07-15T16:15:30;23.70;42.70